sensor_id;sensor_type;location;lat;lon;timestamp;P1;durP1;ratioP1;P2;durP2;ratioP2
25481;SDS011;13395;50.752;4.268;2023-06-26T00:01:32;5.63;;;3.33;;
25481;SDS011;13395;50.752;4.268;2023-06-26T00:03:58;5.50;;;4.18;;
25481;SDS011;13395;50.752;4.268;2023-06-26T00:06:27;6.20;;;4.35;;
25481;SDS011;13395;50.752;4.268;2023-06-26T00:08:53;6.40;;;4.30;;
25481;SDS011;13395;50.752;4.268;2023-06-26T00:11:19;4.85;;;4.28;;
25481;SDS011;13395;50.752;4.268;2023-06-26T00:13:45;8.00;;;4.13;;
25481;SDS011;13395;50.752;4.268;2023-06-26T00:16:11;5.57;;;3.67;;
25481;SDS011;13395;50.752;4.268;2023-06-26T00:18:36;5.05;;;3.55;;
25481;SDS011;13395;50.752;4.268;2023-06-26T00:21:02;8.50;;;3.85;;
25481;SDS011;13395;50.752;4.268;2023-06-26T00:23:27;6.95;;;4.18;;
25481;SDS011;13395;50.752;4.268;2023-06-26T00:25:55;5.10;;;3.67;;
25481;SDS011;13395;50.752;4.268;2023-06-26T00:28:21;8.43;;;3.40;;
25481;SDS011;13395;50.752;4.268;2023-06-26T00:30:47;5.80;;;3.33;;
25481;SDS011;13395;50.752;4.268;2023-06-26T00:33:12;8.55;;;3.45;;
25481;SDS011;13395;50.752;4.268;2023-06-26T00:35:38;5.55;;;2.95;;
25481;SDS011;13395;50.752;4.268;2023-06-26T00:38:03;5.47;;;3.38;;
25481;SDS011;13395;50.752;4.268;2023-06-26T00:40:29;6.95;;;3.53;;
25481;SDS011;13395;50.752;4.268;2023-06-26T00:42:54;6.85;;;3.13;;
25481;SDS011;13395;50.752;4.268;2023-06-26T00:45:20;5.22;;;3.33;;
25481;SDS011;13395;50.752;4.268;2023-06-26T00:47:46;5.20;;;3.40;;
25481;SDS011;13395;50.752;4.268;2023-06-26T00:50:12;3.85;;;3.00;;
25481;SDS011;13395;50.752;4.268;2023-06-26T00:52:40;5.63;;;3.58;;
25481;SDS011;13395;50.752;4.268;2023-06-26T00:55:06;4.60;;;3.17;;
25481;SDS011;13395;50.752;4.268;2023-06-26T00:57:32;4.85;;;3.05;;
25481;SDS011;13395;50.752;4.268;2023-06-26T00:59:58;7.82;;;3.88;;
25481;SDS011;13395;50.752;4.268;2023-06-26T01:02:25;7.15;;;4.03;;
25481;SDS011;13395;50.752;4.268;2023-06-26T01:04:58;5.13;;;3.78;;
25481;SDS011;13395;50.752;4.268;2023-06-26T01:07:31;6.20;;;3.80;;
25481;SDS011;13395;50.752;4.268;2023-06-26T01:10:01;7.28;;;3.85;;
25481;SDS011;13395;50.752;4.268;2023-06-26T01:12:31;5.53;;;3.42;;
25481;SDS011;13395;50.752;4.268;2023-06-26T01:14:58;12.35;;;3.80;;
25481;SDS011;13395;50.752;4.268;2023-06-26T01:17:24;4.70;;;2.92;;
25481;SDS011;13395;50.752;4.268;2023-06-26T01:19:52;7.97;;;4.05;;
25481;SDS011;13395;50.752;4.268;2023-06-26T01:22:20;7.65;;;3.55;;
25481;SDS011;13395;50.752;4.268;2023-06-26T01:27:24;8.40;;;3.30;;
25481;SDS011;13395;50.752;4.268;2023-06-26T01:29:51;5.22;;;3.40;;
25481;SDS011;13395;50.752;4.268;2023-06-26T01:32:18;6.95;;;3.70;;
25481;SDS011;13395;50.752;4.268;2023-06-26T01:34:44;7.53;;;3.53;;
25481;SDS011;13395;50.752;4.268;2023-06-26T01:37:10;8.23;;;3.70;;
25481;SDS011;13395;50.752;4.268;2023-06-26T01:39:35;7.68;;;3.33;;
25481;SDS011;13395;50.752;4.268;2023-06-26T01:42:01;6.78;;;3.65;;
25481;SDS011;13395;50.752;4.268;2023-06-26T01:44:28;6.70;;;3.80;;
25481;SDS011;13395;50.752;4.268;2023-06-26T01:47:01;8.60;;;3.80;;
25481;SDS011;13395;50.752;4.268;2023-06-26T01:49:31;9.82;;;4.55;;
25481;SDS011;13395;50.752;4.268;2023-06-26T01:52:13;9.18;;;3.35;;
25481;SDS011;13395;50.752;4.268;2023-06-26T01:54:48;10.60;;;3.63;;
25481;SDS011;13395;50.752;4.268;2023-06-26T01:57:19;6.22;;;3.95;;
25481;SDS011;13395;50.752;4.268;2023-06-26T01:59:47;11.98;;;3.95;;
25481;SDS011;13395;50.752;4.268;2023-06-26T02:02:14;7.45;;;3.40;;
25481;SDS011;13395;50.752;4.268;2023-06-26T02:04:39;6.90;;;3.58;;
25481;SDS011;13395;50.752;4.268;2023-06-26T02:07:06;6.53;;;3.78;;
25481;SDS011;13395;50.752;4.268;2023-06-26T02:09:31;11.15;;;4.03;;
25481;SDS011;13395;50.752;4.268;2023-06-26T02:11:57;9.18;;;4.28;;
25481;SDS011;13395;50.752;4.268;2023-06-26T02:14:22;8.00;;;3.70;;
25481;SDS011;13395;50.752;4.268;2023-06-26T02:16:48;7.35;;;3.58;;
25481;SDS011;13395;50.752;4.268;2023-06-26T02:19:14;6.97;;;3.40;;
25481;SDS011;13395;50.752;4.268;2023-06-26T02:21:46;7.70;;;4.65;;
25481;SDS011;13395;50.752;4.268;2023-06-26T02:24:15;9.45;;;3.97;;
25481;SDS011;13395;50.752;4.268;2023-06-26T02:26:40;9.63;;;4.47;;
25481;SDS011;13395;50.752;4.268;2023-06-26T02:29:06;6.63;;;3.83;;
25481;SDS011;13395;50.752;4.268;2023-06-26T02:31:32;11.75;;;4.25;;
25481;SDS011;13395;50.752;4.268;2023-06-26T02:33:57;12.10;;;5.13;;
25481;SDS011;13395;50.752;4.268;2023-06-26T02:36:23;7.05;;;4.13;;
25481;SDS011;13395;50.752;4.268;2023-06-26T02:38:48;9.95;;;4.43;;
25481;SDS011;13395;50.752;4.268;2023-06-26T02:41:14;9.32;;;4.30;;
25481;SDS011;13395;50.752;4.268;2023-06-26T02:43:39;10.40;;;4.05;;
25481;SDS011;13395;50.752;4.268;2023-06-26T02:46:05;7.97;;;3.45;;
25481;SDS011;13395;50.752;4.268;2023-06-26T02:48:31;9.77;;;4.80;;
25481;SDS011;13395;50.752;4.268;2023-06-26T02:50:56;8.48;;;4.70;;
25481;SDS011;13395;50.752;4.268;2023-06-26T02:53:22;12.98;;;4.35;;
25481;SDS011;13395;50.752;4.268;2023-06-26T02:55:47;12.73;;;4.68;;
25481;SDS011;13395;50.752;4.268;2023-06-26T02:58:13;12.63;;;4.50;;
25481;SDS011;13395;50.752;4.268;2023-06-26T03:00:38;9.23;;;3.90;;
25481;SDS011;13395;50.752;4.268;2023-06-26T03:03:06;8.88;;;4.35;;
25481;SDS011;13395;50.752;4.268;2023-06-26T03:05:32;12.63;;;4.80;;
25481;SDS011;13395;50.752;4.268;2023-06-26T03:07:58;12.63;;;4.60;;
25481;SDS011;13395;50.752;4.268;2023-06-26T03:10:23;10.23;;;5.03;;
25481;SDS011;13395;50.752;4.268;2023-06-26T03:12:49;11.88;;;5.10;;
25481;SDS011;13395;50.752;4.268;2023-06-26T03:15:14;14.20;;;4.47;;
25481;SDS011;13395;50.752;4.268;2023-06-26T03:17:40;18.98;;;5.35;;
25481;SDS011;13395;50.752;4.268;2023-06-26T03:20:06;9.85;;;4.75;;
25481;SDS011;13395;50.752;4.268;2023-06-26T03:22:32;13.73;;;4.80;;
25481;SDS011;13395;50.752;4.268;2023-06-26T03:24:58;14.80;;;4.65;;
25481;SDS011;13395;50.752;4.268;2023-06-26T03:27:24;10.40;;;4.65;;
25481;SDS011;13395;50.752;4.268;2023-06-26T03:29:51;13.30;;;5.10;;
25481;SDS011;13395;50.752;4.268;2023-06-26T03:32:17;12.93;;;5.47;;
25481;SDS011;13395;50.752;4.268;2023-06-26T03:34:43;12.18;;;4.80;;
25481;SDS011;13395;50.752;4.268;2023-06-26T03:37:08;17.92;;;5.43;;
25481;SDS011;13395;50.752;4.268;2023-06-26T03:39:34;17.02;;;6.38;;
25481;SDS011;13395;50.752;4.268;2023-06-26T03:42:00;16.00;;;4.70;;
25481;SDS011;13395;50.752;4.268;2023-06-26T03:44:26;14.82;;;5.40;;
25481;SDS011;13395;50.752;4.268;2023-06-26T03:46:52;15.95;;;5.28;;
25481;SDS011;13395;50.752;4.268;2023-06-26T03:49:18;19.13;;;4.82;;
25481;SDS011;13395;50.752;4.268;2023-06-26T03:51:44;14.65;;;5.00;;
25481;SDS011;13395;50.752;4.268;2023-06-26T03:54:10;15.70;;;5.60;;
25481;SDS011;13395;50.752;4.268;2023-06-26T03:56:35;13.23;;;5.22;;
25481;SDS011;13395;50.752;4.268;2023-06-26T03:59:01;16.92;;;5.30;;
25481;SDS011;13395;50.752;4.268;2023-06-26T04:01:27;12.55;;;5.78;;
25481;SDS011;13395;50.752;4.268;2023-06-26T04:03:53;16.42;;;5.80;;
25481;SDS011;13395;50.752;4.268;2023-06-26T04:06:19;14.75;;;4.75;;
25481;SDS011;13395;50.752;4.268;2023-06-26T04:08:44;15.40;;;5.30;;
25481;SDS011;13395;50.752;4.268;2023-06-26T04:11:10;18.30;;;5.53;;
25481;SDS011;13395;50.752;4.268;2023-06-26T04:13:36;15.07;;;5.15;;
25481;SDS011;13395;50.752;4.268;2023-06-26T04:16:01;16.70;;;5.05;;
25481;SDS011;13395;50.752;4.268;2023-06-26T04:18:27;20.60;;;6.60;;
25481;SDS011;13395;50.752;4.268;2023-06-26T04:21:05;12.23;;;4.90;;
25481;SDS011;13395;50.752;4.268;2023-06-26T04:23:36;14.40;;;4.80;;
25481;SDS011;13395;50.752;4.268;2023-06-26T04:26:03;15.00;;;5.20;;
25481;SDS011;13395;50.752;4.268;2023-06-26T04:28:30;13.77;;;4.43;;
25481;SDS011;13395;50.752;4.268;2023-06-26T04:30:59;21.15;;;4.70;;
25481;SDS011;13395;50.752;4.268;2023-06-26T04:33:28;13.68;;;4.65;;
25481;SDS011;13395;50.752;4.268;2023-06-26T04:35:54;21.70;;;4.97;;
25481;SDS011;13395;50.752;4.268;2023-06-26T04:38:19;12.93;;;4.78;;
25481;SDS011;13395;50.752;4.268;2023-06-26T04:40:46;18.23;;;5.13;;
25481;SDS011;13395;50.752;4.268;2023-06-26T04:43:15;18.33;;;4.82;;
25481;SDS011;13395;50.752;4.268;2023-06-26T04:45:40;18.15;;;4.60;;
25481;SDS011;13395;50.752;4.268;2023-06-26T04:48:06;16.50;;;5.28;;
25481;SDS011;13395;50.752;4.268;2023-06-26T04:50:32;11.30;;;4.28;;
25481;SDS011;13395;50.752;4.268;2023-06-26T04:52:58;12.02;;;4.07;;
25481;SDS011;13395;50.752;4.268;2023-06-26T04:55:24;17.10;;;5.25;;
25481;SDS011;13395;50.752;4.268;2023-06-26T04:57:50;16.42;;;3.95;;
25481;SDS011;13395;50.752;4.268;2023-06-26T05:00:16;13.07;;;3.88;;
25481;SDS011;13395;50.752;4.268;2023-06-26T05:02:41;10.60;;;4.22;;
25481;SDS011;13395;50.752;4.268;2023-06-26T05:05:07;12.50;;;5.28;;
25481;SDS011;13395;50.752;4.268;2023-06-26T05:07:33;10.60;;;4.03;;
25481;SDS011;13395;50.752;4.268;2023-06-26T05:09:58;13.25;;;3.47;;
25481;SDS011;13395;50.752;4.268;2023-06-26T05:12:24;14.68;;;3.65;;
25481;SDS011;13395;50.752;4.268;2023-06-26T05:14:49;14.95;;;3.80;;
25481;SDS011;13395;50.752;4.268;2023-06-26T05:17:15;14.77;;;4.57;;
25481;SDS011;13395;50.752;4.268;2023-06-26T05:19:41;14.98;;;3.90;;
25481;SDS011;13395;50.752;4.268;2023-06-26T05:22:07;11.73;;;4.10;;
25481;SDS011;13395;50.752;4.268;2023-06-26T05:24:36;12.98;;;3.53;;
25481;SDS011;13395;50.752;4.268;2023-06-26T05:27:03;13.20;;;3.60;;
25481;SDS011;13395;50.752;4.268;2023-06-26T05:29:32;20.08;;;3.63;;
25481;SDS011;13395;50.752;4.268;2023-06-26T05:31:59;18.55;;;2.90;;
25481;SDS011;13395;50.752;4.268;2023-06-26T05:34:26;10.02;;;3.10;;
25481;SDS011;13395;50.752;4.268;2023-06-26T05:36:55;10.27;;;3.08;;
25481;SDS011;13395;50.752;4.268;2023-06-26T05:39:25;14.10;;;3.13;;
25481;SDS011;13395;50.752;4.268;2023-06-26T05:41:51;10.38;;;3.05;;
25481;SDS011;13395;50.752;4.268;2023-06-26T05:44:17;14.65;;;3.33;;
25481;SDS011;13395;50.752;4.268;2023-06-26T05:46:43;9.90;;;2.75;;
25481;SDS011;13395;50.752;4.268;2023-06-26T05:49:09;12.75;;;2.65;;
25481;SDS011;13395;50.752;4.268;2023-06-26T05:51:35;15.82;;;2.88;;
25481;SDS011;13395;50.752;4.268;2023-06-26T05:54:01;10.27;;;2.08;;
25481;SDS011;13395;50.752;4.268;2023-06-26T05:56:26;9.05;;;2.88;;
25481;SDS011;13395;50.752;4.268;2023-06-26T05:58:56;9.60;;;2.17;;
25481;SDS011;13395;50.752;4.268;2023-06-26T06:01:23;10.30;;;2.25;;
25481;SDS011;13395;50.752;4.268;2023-06-26T06:03:49;7.38;;;2.00;;
25481;SDS011;13395;50.752;4.268;2023-06-26T06:06:15;15.45;;;3.50;;
25481;SDS011;13395;50.752;4.268;2023-06-26T06:08:41;12.25;;;2.53;;
25481;SDS011;13395;50.752;4.268;2023-06-26T06:11:07;7.28;;;2.55;;
25481;SDS011;13395;50.752;4.268;2023-06-26T06:13:32;8.98;;;2.28;;
25481;SDS011;13395;50.752;4.268;2023-06-26T06:15:58;5.60;;;1.88;;
25481;SDS011;13395;50.752;4.268;2023-06-26T06:18:23;10.13;;;2.50;;
25481;SDS011;13395;50.752;4.268;2023-06-26T06:20:49;10.57;;;2.17;;
25481;SDS011;13395;50.752;4.268;2023-06-26T06:23:14;6.80;;;2.10;;
25481;SDS011;13395;50.752;4.268;2023-06-26T06:25:40;4.93;;;1.60;;
25481;SDS011;13395;50.752;4.268;2023-06-26T06:28:05;11.98;;;2.20;;
25481;SDS011;13395;50.752;4.268;2023-06-26T06:30:31;9.13;;;1.88;;
25481;SDS011;13395;50.752;4.268;2023-06-26T06:32:57;7.90;;;1.80;;
25481;SDS011;13395;50.752;4.268;2023-06-26T06:35:23;5.10;;;1.60;;
25481;SDS011;13395;50.752;4.268;2023-06-26T06:37:49;8.77;;;2.10;;
25481;SDS011;13395;50.752;4.268;2023-06-26T06:40:15;6.80;;;1.98;;
25481;SDS011;13395;50.752;4.268;2023-06-26T06:42:41;5.18;;;1.63;;
25481;SDS011;13395;50.752;4.268;2023-06-26T06:45:06;5.38;;;1.77;;
25481;SDS011;13395;50.752;4.268;2023-06-26T06:47:32;9.98;;;1.60;;
25481;SDS011;13395;50.752;4.268;2023-06-26T06:49:59;7.65;;;1.60;;
25481;SDS011;13395;50.752;4.268;2023-06-26T06:55:05;7.82;;;1.65;;
25481;SDS011;13395;50.752;4.268;2023-06-26T06:57:50;7.30;;;1.70;;
25481;SDS011;13395;50.752;4.268;2023-06-26T07:00:16;5.72;;;1.52;;
25481;SDS011;13395;50.752;4.268;2023-06-26T07:02:43;20.73;;;2.33;;
25481;SDS011;13395;50.752;4.268;2023-06-26T07:05:09;5.88;;;1.20;;
25481;SDS011;13395;50.752;4.268;2023-06-26T07:07:36;5.60;;;1.38;;
25481;SDS011;13395;50.752;4.268;2023-06-26T07:10:03;6.28;;;1.50;;
25481;SDS011;13395;50.752;4.268;2023-06-26T07:12:34;10.15;;;1.70;;
25481;SDS011;13395;50.752;4.268;2023-06-26T07:15:00;13.15;;;2.15;;
25481;SDS011;13395;50.752;4.268;2023-06-26T07:17:26;5.07;;;1.58;;
25481;SDS011;13395;50.752;4.268;2023-06-26T07:19:52;9.70;;;1.52;;
25481;SDS011;13395;50.752;4.268;2023-06-26T07:22:17;6.60;;;1.58;;
25481;SDS011;13395;50.752;4.268;2023-06-26T07:24:45;6.28;;;1.45;;
25481;SDS011;13395;50.752;4.268;2023-06-26T07:27:17;4.43;;;1.30;;
25481;SDS011;13395;50.752;4.268;2023-06-26T07:29:44;7.90;;;1.33;;
25481;SDS011;13395;50.752;4.268;2023-06-26T07:32:10;6.60;;;1.33;;
25481;SDS011;13395;50.752;4.268;2023-06-26T07:34:35;7.05;;;1.40;;
25481;SDS011;13395;50.752;4.268;2023-06-26T07:37:01;9.88;;;1.60;;
25481;SDS011;13395;50.752;4.268;2023-06-26T07:39:27;7.57;;;1.38;;
25481;SDS011;13395;50.752;4.268;2023-06-26T07:41:52;13.13;;;1.58;;
25481;SDS011;13395;50.752;4.268;2023-06-26T07:44:18;8.70;;;2.05;;
25481;SDS011;13395;50.752;4.268;2023-06-26T07:46:44;7.03;;;1.40;;
25481;SDS011;13395;50.752;4.268;2023-06-26T07:49:09;7.65;;;1.70;;
25481;SDS011;13395;50.752;4.268;2023-06-26T07:51:35;6.60;;;2.00;;
25481;SDS011;13395;50.752;4.268;2023-06-26T07:54:01;4.80;;;1.30;;
25481;SDS011;13395;50.752;4.268;2023-06-26T07:56:27;3.58;;;1.27;;
25481;SDS011;13395;50.752;4.268;2023-06-26T07:58:52;4.00;;;1.35;;
25481;SDS011;13395;50.752;4.268;2023-06-26T08:01:18;6.07;;;1.30;;
25481;SDS011;13395;50.752;4.268;2023-06-26T08:03:43;4.05;;;0.98;;
25481;SDS011;13395;50.752;4.268;2023-06-26T08:06:09;7.10;;;1.45;;
25481;SDS011;13395;50.752;4.268;2023-06-26T08:08:35;8.27;;;1.35;;
25481;SDS011;13395;50.752;4.268;2023-06-26T08:11:00;5.80;;;1.77;;
25481;SDS011;13395;50.752;4.268;2023-06-26T08:13:27;6.63;;;1.42;;
25481;SDS011;13395;50.752;4.268;2023-06-26T08:15:53;3.50;;;1.08;;
25481;SDS011;13395;50.752;4.268;2023-06-26T08:18:19;4.53;;;1.27;;
25481;SDS011;13395;50.752;4.268;2023-06-26T08:20:45;10.63;;;1.48;;
25481;SDS011;13395;50.752;4.268;2023-06-26T08:23:11;5.20;;;1.20;;
25481;SDS011;13395;50.752;4.268;2023-06-26T08:25:37;5.18;;;1.20;;
25481;SDS011;13395;50.752;4.268;2023-06-26T08:28:02;6.93;;;1.50;;
25481;SDS011;13395;50.752;4.268;2023-06-26T08:30:28;6.20;;;1.40;;
25481;SDS011;13395;50.752;4.268;2023-06-26T08:32:56;5.95;;;1.52;;
25481;SDS011;13395;50.752;4.268;2023-06-26T08:35:21;3.67;;;1.15;;
25481;SDS011;13395;50.752;4.268;2023-06-26T08:37:47;5.20;;;1.35;;
25481;SDS011;13395;50.752;4.268;2023-06-26T08:40:12;5.35;;;1.30;;
25481;SDS011;13395;50.752;4.268;2023-06-26T08:42:42;3.25;;;1.15;;
25481;SDS011;13395;50.752;4.268;2023-06-26T08:45:08;5.65;;;1.42;;
25481;SDS011;13395;50.752;4.268;2023-06-26T08:47:34;7.30;;;1.40;;
25481;SDS011;13395;50.752;4.268;2023-06-26T08:52:51;5.68;;;1.30;;
25481;SDS011;13395;50.752;4.268;2023-06-26T08:55:21;4.25;;;1.10;;
25481;SDS011;13395;50.752;4.268;2023-06-26T08:57:49;4.72;;;1.05;;
25481;SDS011;13395;50.752;4.268;2023-06-26T09:00:16;5.75;;;1.10;;
25481;SDS011;13395;50.752;4.268;2023-06-26T09:02:42;3.83;;;1.13;;
25481;SDS011;13395;50.752;4.268;2023-06-26T09:05:09;5.18;;;1.25;;
25481;SDS011;13395;50.752;4.268;2023-06-26T09:07:34;3.72;;;1.25;;
25481;SDS011;13395;50.752;4.268;2023-06-26T09:10:00;6.78;;;2.08;;
25481;SDS011;13395;50.752;4.268;2023-06-26T09:12:28;4.88;;;1.30;;
25481;SDS011;13395;50.752;4.268;2023-06-26T09:14:56;6.95;;;1.70;;
25481;SDS011;13395;50.752;4.268;2023-06-26T09:17:25;7.15;;;1.90;;
25481;SDS011;13395;50.752;4.268;2023-06-26T09:19:56;10.35;;;1.60;;
25481;SDS011;13395;50.752;4.268;2023-06-26T09:22:22;6.85;;;1.65;;
25481;SDS011;13395;50.752;4.268;2023-06-26T09:24:48;10.15;;;1.45;;
25481;SDS011;13395;50.752;4.268;2023-06-26T09:27:15;5.05;;;1.30;;
25481;SDS011;13395;50.752;4.268;2023-06-26T09:29:41;2.72;;;1.30;;
25481;SDS011;13395;50.752;4.268;2023-06-26T09:32:09;3.38;;;1.00;;
25481;SDS011;13395;50.752;4.268;2023-06-26T09:34:37;7.75;;;1.40;;
25481;SDS011;13395;50.752;4.268;2023-06-26T09:37:07;4.32;;;1.17;;
25481;SDS011;13395;50.752;4.268;2023-06-26T09:39:33;3.88;;;1.25;;
25481;SDS011;13395;50.752;4.268;2023-06-26T09:41:58;4.35;;;1.45;;
25481;SDS011;13395;50.752;4.268;2023-06-26T09:44:24;4.70;;;1.30;;
25481;SDS011;13395;50.752;4.268;2023-06-26T09:46:50;7.43;;;1.10;;
25481;SDS011;13395;50.752;4.268;2023-06-26T09:49:15;9.50;;;1.83;;
25481;SDS011;13395;50.752;4.268;2023-06-26T09:51:41;6.20;;;1.17;;
25481;SDS011;13395;50.752;4.268;2023-06-26T09:54:08;3.85;;;1.08;;
25481;SDS011;13395;50.752;4.268;2023-06-26T09:56:34;6.63;;;1.15;;
25481;SDS011;13395;50.752;4.268;2023-06-26T09:59:01;12.20;;;1.50;;
25481;SDS011;13395;50.752;4.268;2023-06-26T10:01:28;5.78;;;1.42;;
25481;SDS011;13395;50.752;4.268;2023-06-26T10:03:55;3.60;;;1.02;;
25481;SDS011;13395;50.752;4.268;2023-06-26T10:06:27;6.80;;;1.17;;
25481;SDS011;13395;50.752;4.268;2023-06-26T10:08:56;7.82;;;1.23;;
25481;SDS011;13395;50.752;4.268;2023-06-26T10:11:24;3.70;;;1.15;;
25481;SDS011;13395;50.752;4.268;2023-06-26T10:13:54;3.72;;;1.10;;
25481;SDS011;13395;50.752;4.268;2023-06-26T10:16:23;2.00;;;1.10;;
25481;SDS011;13395;50.752;4.268;2023-06-26T10:18:56;8.02;;;0.93;;
25481;SDS011;13395;50.752;4.268;2023-06-26T10:21:28;2.88;;;0.90;;
25481;SDS011;13395;50.752;4.268;2023-06-26T10:23:54;4.90;;;1.08;;
25481;SDS011;13395;50.752;4.268;2023-06-26T10:26:21;4.38;;;1.25;;
25481;SDS011;13395;50.752;4.268;2023-06-26T10:28:49;8.38;;;1.10;;
25481;SDS011;13395;50.752;4.268;2023-06-26T10:31:18;6.85;;;1.10;;
25481;SDS011;13395;50.752;4.268;2023-06-26T10:33:48;4.18;;;1.08;;
25481;SDS011;13395;50.752;4.268;2023-06-26T10:36:15;3.13;;;1.25;;
25481;SDS011;13395;50.752;4.268;2023-06-26T10:39:15;4.75;;;1.50;;
25481;SDS011;13395;50.752;4.268;2023-06-26T10:41:37;2.60;;;1.00;;
25481;SDS011;13395;50.752;4.268;2023-06-26T10:44:07;5.70;;;1.63;;
25481;SDS011;13395;50.752;4.268;2023-06-26T10:46:55;9.27;;;1.33;;
25481;SDS011;13395;50.752;4.268;2023-06-26T10:49:27;5.50;;;1.08;;
25481;SDS011;13395;50.752;4.268;2023-06-26T10:51:54;6.05;;;1.25;;
25481;SDS011;13395;50.752;4.268;2023-06-26T10:54:22;3.10;;;1.63;;
25481;SDS011;13395;50.752;4.268;2023-06-26T10:56:54;4.15;;;1.00;;
25481;SDS011;13395;50.752;4.268;2023-06-26T10:59:27;4.85;;;1.38;;
25481;SDS011;13395;50.752;4.268;2023-06-26T11:02:11;4.60;;;1.48;;
25481;SDS011;13395;50.752;4.268;2023-06-26T11:07:24;4.95;;;1.08;;
25481;SDS011;13395;50.752;4.268;2023-06-26T11:15:18;3.60;;;1.10;;
25481;SDS011;13395;50.752;4.268;2023-06-26T11:17:44;4.68;;;1.33;;
25481;SDS011;13395;50.752;4.268;2023-06-26T11:20:13;4.65;;;1.15;;
25481;SDS011;13395;50.752;4.268;2023-06-26T11:22:41;2.85;;;1.17;;
25481;SDS011;13395;50.752;4.268;2023-06-26T11:25:08;4.43;;;1.25;;
25481;SDS011;13395;50.752;4.268;2023-06-26T11:30:04;3.78;;;1.13;;
25481;SDS011;13395;50.752;4.268;2023-06-26T11:32:30;5.90;;;1.75;;
25481;SDS011;13395;50.752;4.268;2023-06-26T11:34:57;6.90;;;1.25;;
25481;SDS011;13395;50.752;4.268;2023-06-26T11:37:24;5.68;;;1.25;;
25481;SDS011;13395;50.752;4.268;2023-06-26T11:39:50;3.10;;;1.00;;
25481;SDS011;13395;50.752;4.268;2023-06-26T11:42:19;4.82;;;1.10;;
25481;SDS011;13395;50.752;4.268;2023-06-26T11:44:47;5.20;;;1.27;;
25481;SDS011;13395;50.752;4.268;2023-06-26T11:47:16;2.45;;;1.10;;
25481;SDS011;13395;50.752;4.268;2023-06-26T11:49:43;3.92;;;1.30;;
25481;SDS011;13395;50.752;4.268;2023-06-26T11:52:09;6.43;;;1.38;;
25481;SDS011;13395;50.752;4.268;2023-06-26T11:54:35;4.65;;;1.00;;
25481;SDS011;13395;50.752;4.268;2023-06-26T11:57:01;4.00;;;1.00;;
25481;SDS011;13395;50.752;4.268;2023-06-26T11:59:33;6.43;;;1.38;;
25481;SDS011;13395;50.752;4.268;2023-06-26T12:02:00;6.35;;;1.08;;
25481;SDS011;13395;50.752;4.268;2023-06-26T12:04:30;3.35;;;1.00;;
25481;SDS011;13395;50.752;4.268;2023-06-26T12:06:56;2.03;;;0.80;;
25481;SDS011;13395;50.752;4.268;2023-06-26T12:09:22;4.75;;;1.02;;
25481;SDS011;13395;50.752;4.268;2023-06-26T12:11:51;5.03;;;1.55;;
25481;SDS011;13395;50.752;4.268;2023-06-26T12:14:19;6.05;;;1.73;;
25481;SDS011;13395;50.752;4.268;2023-06-26T12:16:46;3.78;;;0.77;;
25481;SDS011;13395;50.752;4.268;2023-06-26T12:19:12;7.53;;;1.35;;
25481;SDS011;13395;50.752;4.268;2023-06-26T12:24:12;3.83;;;1.40;;
25481;SDS011;13395;50.752;4.268;2023-06-26T12:26:40;5.15;;;1.10;;
25481;SDS011;13395;50.752;4.268;2023-06-26T12:29:09;8.18;;;1.40;;
25481;SDS011;13395;50.752;4.268;2023-06-26T12:31:42;4.32;;;1.00;;
25481;SDS011;13395;50.752;4.268;2023-06-26T12:34:13;3.67;;;1.10;;
25481;SDS011;13395;50.752;4.268;2023-06-26T12:36:43;4.85;;;0.90;;
25481;SDS011;13395;50.752;4.268;2023-06-26T12:39:10;3.25;;;1.40;;
25481;SDS011;13395;50.752;4.268;2023-06-26T12:44:16;3.15;;;1.08;;
25481;SDS011;13395;50.752;4.268;2023-06-26T12:46:42;5.30;;;1.30;;
25481;SDS011;13395;50.752;4.268;2023-06-26T12:49:08;4.00;;;1.00;;
25481;SDS011;13395;50.752;4.268;2023-06-26T12:51:37;3.33;;;1.08;;
25481;SDS011;13395;50.752;4.268;2023-06-26T12:54:02;4.75;;;1.15;;
25481;SDS011;13395;50.752;4.268;2023-06-26T12:56:28;4.97;;;1.50;;
25481;SDS011;13395;50.752;4.268;2023-06-26T12:58:53;7.18;;;1.48;;
25481;SDS011;13395;50.752;4.268;2023-06-26T13:01:19;6.80;;;1.42;;
25481;SDS011;13395;50.752;4.268;2023-06-26T13:03:45;2.63;;;1.25;;
25481;SDS011;13395;50.752;4.268;2023-06-26T13:06:10;7.93;;;1.23;;
25481;SDS011;13395;50.752;4.268;2023-06-26T13:08:37;6.60;;;1.15;;
25481;SDS011;13395;50.752;4.268;2023-06-26T13:11:02;4.65;;;1.05;;
25481;SDS011;13395;50.752;4.268;2023-06-26T13:13:28;5.35;;;1.58;;
25481;SDS011;13395;50.752;4.268;2023-06-26T13:15:53;5.47;;;1.70;;
25481;SDS011;13395;50.752;4.268;2023-06-26T13:18:19;2.47;;;1.27;;
25481;SDS011;13395;50.752;4.268;2023-06-26T13:20:45;3.58;;;1.20;;
25481;SDS011;13395;50.752;4.268;2023-06-26T13:23:12;4.07;;;1.30;;
25481;SDS011;13395;50.752;4.268;2023-06-26T13:25:38;3.15;;;1.60;;
25481;SDS011;13395;50.752;4.268;2023-06-26T13:28:03;7.03;;;1.27;;
25481;SDS011;13395;50.752;4.268;2023-06-26T13:30:29;5.20;;;1.40;;
25481;SDS011;13395;50.752;4.268;2023-06-26T13:32:54;4.03;;;1.30;;
25481;SDS011;13395;50.752;4.268;2023-06-26T13:35:20;4.65;;;1.40;;
25481;SDS011;13395;50.752;4.268;2023-06-26T13:37:46;5.88;;;1.60;;
25481;SDS011;13395;50.752;4.268;2023-06-26T13:40:12;9.75;;;1.80;;
25481;SDS011;13395;50.752;4.268;2023-06-26T13:42:38;3.78;;;1.30;;
25481;SDS011;13395;50.752;4.268;2023-06-26T13:45:04;4.57;;;1.67;;
25481;SDS011;13395;50.752;4.268;2023-06-26T13:47:30;3.70;;;1.30;;
25481;SDS011;13395;50.752;4.268;2023-06-26T13:49:56;5.15;;;1.48;;
25481;SDS011;13395;50.752;4.268;2023-06-26T13:52:21;4.97;;;1.50;;
25481;SDS011;13395;50.752;4.268;2023-06-26T13:54:47;4.50;;;1.40;;
25481;SDS011;13395;50.752;4.268;2023-06-26T13:57:13;2.05;;;0.98;;
25481;SDS011;13395;50.752;4.268;2023-06-26T13:59:38;4.13;;;1.52;;
25481;SDS011;13395;50.752;4.268;2023-06-26T14:02:04;3.22;;;1.15;;
25481;SDS011;13395;50.752;4.268;2023-06-26T14:04:31;2.83;;;1.10;;
25481;SDS011;13395;50.752;4.268;2023-06-26T14:06:57;4.05;;;1.08;;
25481;SDS011;13395;50.752;4.268;2023-06-26T14:09:23;4.50;;;1.30;;
25481;SDS011;13395;50.752;4.268;2023-06-26T14:11:48;5.65;;;1.20;;
25481;SDS011;13395;50.752;4.268;2023-06-26T14:14:14;4.38;;;1.08;;
25481;SDS011;13395;50.752;4.268;2023-06-26T14:16:39;3.58;;;1.27;;
25481;SDS011;13395;50.752;4.268;2023-06-26T14:19:05;4.85;;;1.20;;
25481;SDS011;13395;50.752;4.268;2023-06-26T14:21:31;3.33;;;1.10;;
25481;SDS011;13395;50.752;4.268;2023-06-26T14:23:58;5.88;;;1.63;;
25481;SDS011;13395;50.752;4.268;2023-06-26T14:26:24;2.60;;;1.00;;
25481;SDS011;13395;50.752;4.268;2023-06-26T14:28:49;4.70;;;1.20;;
25481;SDS011;13395;50.752;4.268;2023-06-26T14:31:15;7.65;;;1.00;;
25481;SDS011;13395;50.752;4.268;2023-06-26T14:33:40;9.20;;;1.20;;
25481;SDS011;13395;50.752;4.268;2023-06-26T14:36:06;1.48;;;0.70;;
25481;SDS011;13395;50.752;4.268;2023-06-26T14:38:31;3.00;;;0.90;;
25481;SDS011;13395;50.752;4.268;2023-06-26T14:40:57;5.60;;;1.20;;
25481;SDS011;13395;50.752;4.268;2023-06-26T14:43:23;2.65;;;0.90;;
25481;SDS011;13395;50.752;4.268;2023-06-26T14:45:49;3.25;;;1.20;;
25481;SDS011;13395;50.752;4.268;2023-06-26T14:48:14;3.90;;;1.10;;
25481;SDS011;13395;50.752;4.268;2023-06-26T14:50:40;1.95;;;1.20;;
25481;SDS011;13395;50.752;4.268;2023-06-26T14:53:06;4.53;;;1.10;;
25481;SDS011;13395;50.752;4.268;2023-06-26T14:55:31;3.42;;;0.95;;
25481;SDS011;13395;50.752;4.268;2023-06-26T14:57:57;5.05;;;1.17;;
25481;SDS011;13395;50.752;4.268;2023-06-26T15:00:22;3.35;;;1.25;;
25481;SDS011;13395;50.752;4.268;2023-06-26T15:02:48;6.47;;;1.75;;
25481;SDS011;13395;50.752;4.268;2023-06-26T15:05:19;5.25;;;1.23;;